x

Canaveral 20 Nm East Of Cape Canaveral, Fl (41009) Weather Station

7:20am - Sat 1st Aug 2015 All times are EDT. -4 hours from GMT.

  • Wind
    18mph, 20mph gusts
  • Sea Temp 81°f
  • Air Temp 78°f
  • Sea Pressure 1015.4mb
  • Canaveral 20 Nm East Of Cape Canaveral, Fl
  • Canaveral 20 Nm East Of Cape Canaveral, Fl

More Historic Weather Station data

Upgrade to MSW Pro to gain access to the past 30 days of data for over 8000 Wavebouys and Weather Stations around the globe.

Join Pro

Comparision Forecast

View Surf forecast
   
Sat 08/01 7:20am  -   -   -  18 20 mph 1015.4mb 81f 78f
6:50am 2.5ft 3s 3s 18 20 mph 1015.1mb 80f 78f
6:20am  -   -   -  16 18 mph 1014.9mb 80f 79f
5:50am 2ft 3s 3s 18 22 mph 1015mb 80f 79f
5:20am  -   -   -  16 18 mph 1014.7mb 80f 78f
4:50am 2ft 3s 3s 13 16 mph 1015mb 80f 78f
3:50am 2ft 3s 3s 18 22 mph 1015.7mb 80f 78f
3:20am  -   -   -  13 16 mph 1015.6mb 80f 79f
2:50am 2.5ft 10s 4s 16 18 mph 1015.8mb 80f 79f
2:20am  -   -   -  13 16 mph 1015.9mb 80f 79f
1:50am 2.5ft 4s 4s 16 20 mph 1016mb 81f 79f
1:20am  -   -   -  18 20 mph 1016.1mb 81f 79f
12:50am 3ft 4s 4s 20 22 mph 1016.5mb 81f 79f
12:20am  -   -   -  20 22 mph 1016.6mb 81f 79f
Fri 07/31 11:50pm 3.5ft 4s 4s 20 22 mph 1016.3mb 81f 79f
11:20pm  -   -   -  20 22 mph 1016.2mb 81f 79f
10:50pm 3.5ft 4s 4s 20 22 mph 1016.2mb 81f 79f
10:20pm  -   -   -  18 20 mph 1016.3mb 81f 79f
9:50pm 2.5ft 4s 4s 20 25 mph 1015.9mb 81f 80f
9:20pm  -   -   -  22 25 mph 1015.8mb 81f 80f
8:50pm 2.5ft 4s 4s 22 29 mph 1015.2mb 81f 79f
8:20pm  -   -   -  11 13 mph 1015.1mb 81f 78f
7:50pm 2ft 3s 4s 16 18 mph 1014.9mb 81f 78f
6:50pm 2.5ft 3s 3s 9
mph
1014.5mb 81f 77f
6:20pm  -   -   -  11 13 mph 1015.4mb 81f 75f
5:50pm 1.3ft 8s 4s 29 34 mph 1015.7mb 81f 76f
5:20pm  -   -   -  11 13 mph 1015.5mb 81f 80f
4:50pm  -   -   -  9 11 mph - 81f 78f
3:50pm 1.3ft 7s 4s 13 22 mph 1016.4mb 82f 79f
3:20pm  -   -   -  25 31 mph 1015.7mb 82f 75f
2:50pm 1.6ft 11s 4s 7 9 mph 1016.1mb 82f 81f
2:20pm  -   -   -  7 9 mph 1016.4mb 82f 81f
1:50pm 1.6ft 3s 4s 9 11 mph 1016.4mb 82f 81f
1:20pm  -   -   -  9 11 mph 1016.4mb 82f 81f
12:50pm 1.6ft 3s 3s 9 11 mph 1016.5mb 82f 81f
12:20pm  -   -   -  11 13 mph 1016.7mb 81f 80f
11:50am 1.6ft 3s 3s 13 16 mph 1016.7mb 81f 80f
11:20am  -   -   -  13 16 mph 1016.8mb 81f 80f
10:50am 1.6ft 3s 3s 16 18 mph 1016.6mb 81f 80f
10:20am  -   -   -  13 16 mph 1016.5mb 81f 80f
9:50am 1.6ft 8s 4s 13 16 mph 1016.4mb 81f 80f
9:20am  -   -   -  13 16 mph 1016.3mb 81f 80f
8:50am 1.3ft 3s 3s 13 16 mph 1016.2mb 81f 80f
8:20am  -   -   -  13 16 mph 1015.8mb 81f 80f
7:50am 1.6ft 3s 3s 13
mph
1015.6mb 81f 80f
7:20am  -   -   -  13
mph
1015.4mb 81f 80f
6:50am 1.6ft 3s 3s 11 13 mph 1015.2mb 81f 80f
6:20am  -   -   -  11 13 mph 1015mb 81f 80f
5:50am 1.6ft 4s 3s 13 16 mph 1015.2mb 81f 80f
5:20am  -   -   -  13 16 mph 1015.1mb 81f 80f
4:50am 2ft 4s 4s 13 16 mph 1015.1mb 81f 79f
4:20am  -   -   -  13 16 mph 1015mb 81f 80f
3:50am 2ft 3s 3s 13 16 mph 1014.9mb 81f 79f
3:20am  -   -   -  16 18 mph 1014.6mb 81f 80f
2:50am 2ft 3s 3s 16 18 mph 1014.7mb 81f 79f
2:20am  -   -   -  16 18 mph 1015mb 81f 79f
1:50am 1.6ft 8s 4s 13 16 mph 1015.6mb 81f 79f
1:20am  -   -   -  18 20 mph 1015.6mb 81f 79f
12:50am 2ft 4s 4s 13 16 mph 1015.6mb 81f 80f
12:20am  -   -   -  13 16 mph 1015.8mb 81f 80f
Thu 07/30 11:50pm 2ft 4s 4s 11 16 mph 1016.1mb 81f 80f
11:20pm  -   -   -  13 16 mph 1016.2mb 81f 80f
10:50pm 2.5ft 4s 4s 11 13 mph 1015.9mb 81f 79f
10:20pm  -   -   -  11 13 mph 1015.8mb 81f 79f
9:50pm 2.5ft 4s 4s 11 13 mph 1015.4mb 81f 79f
9:20pm  -   -   -  13 16 mph 1015.4mb 81f 78f
8:50pm 2.5ft 4s 4s 16 20 mph 1015mb 81f 78f
8:20pm  -   -   -  11 13 mph 1015.1mb 81f 78f
7:50pm 2.5ft 3s 4s 16 18 mph 1014.8mb 81f 78f
7:20pm  -   -   -  22 25 mph 1014.7mb 82f 78f
6:50pm 2ft 7s 4s 27 31 mph 1014.5mb 82f 78f
6:20pm  -   -   -  22 27 mph 1014.3mb 82f 80f
5:50pm 1.6ft 8s 4s 16 18 mph 1013.8mb 82f 83f
5:20pm  -   -   -  16 18 mph 1013.7mb 82f 82f
4:50pm 1.3ft 8s 4s 13 16 mph 1013.6mb 82f 82f
4:20pm  -   -   -  11 13 mph 1013.6mb 82f 81f
3:50pm 1.3ft 7s 4s 11
mph
1013.9mb 82f 81f
3:20pm  -   -   -  7 9 mph 1014.4mb 82f 81f
2:50pm 1.6ft 8s 4s 9
mph
1014.7mb 82f 81f
2:20pm  -   -   -  9 11 mph 1015.3mb 82f 81f
1:50pm 1.6ft 10s 4s 9 11 mph 1015.7mb 82f 81f
1:20pm  -   -   -  7 9 mph 1016.1mb 82f 80f
12:50pm 1.6ft 7s 4s 9 11 mph 1016.2mb 82f 80f
12:20pm  -   -   -  9 11 mph 1016.4mb 81f 80f
11:50am 1.6ft 7s 4s 11
mph
1016.5mb 81f 80f
11:20am  -   -   -  9
mph
1016.7mb 81f 79f
10:50am 1.6ft 7s 4s 9 11 mph 1016.5mb 81f 79f
10:20am  -   -   -  11 13 mph 1016.2mb 81f 78f
9:50am 2ft 3s 4s 13
mph
1016.1mb 81f 78f
9:20am  -   -   -  11 13 mph 1015.9mb 81f 79f
8:50am 1.6ft 8s 4s 11 13 mph 1015.7mb 81f 79f
8:20am  -   -   -  11 13 mph 1015.3mb 81f 79f
7:50am 1.6ft 7s 4s 11
mph
1015mb 81f 79f
7:20am  -   -   -  9 11 mph 1014.8mb 81f 79f
6:50am 1.6ft 8s 4s 11
mph
1014.5mb 81f 79f
6:20am  -   -   -  11 13 mph 1014.5mb 81f 79f
5:50am 2ft 3s 3s 11 13 mph 1014.6mb 81f 79f
5:20am  -   -   -  13 16 mph 1014.3mb 81f 79f
4:50am 2ft 7s 4s 13 16 mph 1014.4mb 81f 78f
4:20am  -   -   -  16 18 mph 1014.3mb 81f 78f
3:50am 1.6ft 3s 4s 13 18 mph 1014.4mb 81f 79f
3:20am  -   -   -  13 16 mph 1014.5mb 81f 79f
2:50am 1.6ft 3s 3s 13 16 mph 1014.6mb 81f 79f
2:20am  -   -   -  16 18 mph 1014.3mb 81f 79f
1:50am 1.6ft 10s 4s 16 18 mph 1014.5mb 81f 79f
1:20am  -   -   -  16 18 mph 1014.9mb 81f 80f
12:50am 1.6ft 7s 4s 16 18 mph 1015.1mb 81f 80f
12:20am  -   -   -  9 11 mph 1015mb 81f 80f
Wed 07/29 11:50pm 2ft 4s 4s 11 13 mph 1014.8mb 81f 80f
11:20pm  -   -   -  11 13 mph 1014.9mb 81f 81f
10:50pm 2ft 7s 4s 16
mph
1014.7mb 81f 81f
10:20pm  -   -   -  18 20 mph 1014.3mb 81f 81f
9:50pm 2ft 4s 4s 18 22 mph 1013.9mb 81f 82f
9:20pm  -   -   -  18 22 mph 1014.1mb 82f 82f
8:50pm 1.6ft 10s 4s 7 9 mph 1014.3mb 82f 81f
8:20pm  -   -   -  7 9 mph 1014.1mb 82f 81f
7:50pm 1.6ft 11s 4s 7 9 mph 1013.6mb 82f 81f
7:20pm  -   -   -  9
mph
1013.7mb 82f 81f
6:50pm 1.6ft 11s 4s 7 9 mph 1013.6mb 82f 81f
6:20pm  -   -   -  11
mph
1013.2mb 82f 81f
5:50pm 2ft 4s 4s 9 11 mph 1013.6mb 82f 81f
5:20pm  -   -   -  11 13 mph 1013.7mb 82f 81f
4:50pm 2ft 5s 4s 7
mph
1013.7mb 81f 82f
4:20pm  -   -   -  7 9 mph 1014.1mb 81f 81f
3:50pm 2ft 5s 4s 7 9 mph 1014.8mb 81f 81f
3:20pm  -   -   -  4
mph
1015.3mb 81f 81f
2:50pm 1.6ft 11s 4s 7 9 mph 1015.1mb 81f 81f
2:20pm  -   -   -  9
mph
1015.1mb 81f 81f
1:50pm 1.6ft 3s 4s 9 11 mph 1014.9mb 81f 80f
1:20pm  -   -   -  11
mph
1015.1mb 81f 80f
12:50pm 1.6ft 3s 4s 9 11 mph 1015.6mb 81f 80f
11:50am 1.6ft 3s 4s 11 13 mph 1015.4mb 81f 80f
11:20am  -   -   -  13 16 mph 1015.4mb 81f 80f
10:50am 1.6ft 11s 4s 11 13 mph 1015.8mb 81f 79f
10:20am  -   -   -  11 13 mph 1015.5mb 81f 79f
9:50am 1.6ft 11s 3s 11 13 mph 1015mb 81f 79f
9:20am  -   -   -  11
mph
1015mb 81f 79f
8:50am 1.6ft 3s 3s 11 13 mph 1014.5mb 81f 79f
8:20am  -   -   -  13 16 mph 1014.4mb 80f 78f
7:50am 1.6ft 3s 3s 13 16 mph 1014.1mb 80f 78f
7:20am  -   -   -  13 16 mph 1013.8mb 80f 78f
6:50am 1.3ft 11s 3s 13 16 mph 1013.6mb 80f 78f
6:20am  -   -   -  13
mph
1013.5mb 80f 79f
5:50am 1.3ft 11s 4s 11 13 mph 1013.5mb 80f 79f
5:20am  -   -   -  11 13 mph 1013.5mb 80f 79f
4:50am 1.6ft 11s 4s 11 13 mph 1013.4mb 80f 79f
4:20am  -   -   -  11 13 mph 1013.7mb 80f 79f
3:50am 1.6ft 11s 4s 9 11 mph 1013.9mb 80f 79f
3:20am  -   -   -  11 13 mph 1013.8mb 80f 79f
2:50am 1.6ft 11s 4s 9 11 mph 1013.8mb 81f 79f
2:20am  -   -   -  11 13 mph 1013.6mb 81f 79f
1:50am 1.6ft 11s 4s 13 16 mph 1013.8mb 81f 79f
1:20am  -   -   -  11 13 mph 1014.3mb 81f 80f
12:50am 2ft 11s 4s 13 16 mph 1014.5mb 81f 80f
12:20am  -   -   -  13 16 mph 1014.5mb 81f 80f
Tue 07/28 11:50pm 1.6ft 10s 4s 13 16 mph 1014.3mb 81f 79f
11:20pm  -   -   -  16 18 mph 1014.3mb 81f 79f
10:50pm 2ft 11s 4s 18 20 mph 1014.1mb 81f 79f
10:20pm  -   -   -  16 18 mph 1014.1mb 81f 80f
9:50pm 2.5ft 4s 4s 16 18 mph 1014.1mb 81f 80f
9:20pm  -   -   -  16 18 mph 1014.4mb 81f 79f
8:50pm 2.5ft 3s 4s 18 20 mph 1014.6mb 80f 79f
8:20pm  -   -   -  16 18 mph 1013.9mb 81f 79f
7:50pm 2ft 3s 4s 13 16 mph 1013.8mb 81f 79f
7:20pm  -   -   -  16 18 mph 1013.7mb 81f 79f
6:50pm 2.5ft 3s 4s 13 16 mph 1013.6mb 81f 80f
6:20pm  -   -   -  16 20 mph 1013.1mb 81f 81f
5:50pm 2ft 3s 3s 13 16 mph 1013.5mb 81f 79f
5:20pm  -   -   -  22 27 mph 1013.7mb 81f 80f
4:50pm 2.5ft 3s 4s 16 20 mph 1013.3mb 81f 82f
4:20pm  -   -   -  16 20 mph 1012.8mb 81f 82f
3:50pm 2ft 4s 4s 16 20 mph 1013.5mb 81f 82f
3:20pm  -   -   -  16 18 mph 1013.6mb 81f 82f
2:50pm 2ft 4s 4s 13 16 mph 1013.6mb 81f 82f
2:20pm  -   -   -  13 16 mph 1014.1mb 81f 82f
1:50pm 2ft 3s 4s 13 16 mph 1014.4mb 81f 81f
1:20pm  -   -   -  13 16 mph 1014.8mb 81f 81f
12:50pm 2ft 3s 4s 13 16 mph 1014.9mb 81f 81f
12:20pm  -   -   -  13 16 mph 1015.4mb 81f 80f